createdAt,value
2019-04-28T00:01:07.183Z,1.80
2019-04-28T00:03:36.233Z,2.70
2019-04-28T00:06:05.354Z,2.20
2019-04-28T00:08:34.383Z,1.90
2019-04-28T00:11:03.936Z,1.97
2019-04-28T00:13:33.008Z,1.57
2019-04-28T00:16:02.460Z,1.90
2019-04-28T00:18:31.804Z,2.07
2019-04-28T00:21:28.760Z,2.00
2019-04-28T00:24:12.336Z,2.23
2019-04-28T00:27:06.587Z,2.07
2019-04-28T00:29:40.488Z,2.17
2019-04-28T00:32:06.637Z,1.93
2019-04-28T00:34:35.725Z,2.00
2019-04-28T00:37:41.700Z,1.50
2019-04-28T00:40:11.413Z,1.83
2019-04-28T00:42:41.415Z,2.17
2019-04-28T00:45:11.538Z,1.40
2019-04-28T00:47:40.845Z,1.43
2019-04-28T00:50:11.767Z,1.30
2019-04-28T00:52:41.903Z,1.50
2019-04-28T00:55:11.419Z,1.20
2019-04-28T00:57:41.043Z,1.10
2019-04-28T01:00:11.576Z,1.30
2019-04-28T01:02:42.774Z,1.20
2019-04-28T01:05:12.522Z,1.40
2019-04-28T01:07:41.829Z,1.40
2019-04-28T01:10:11.451Z,1.50
2019-04-28T01:12:41.195Z,1.47
2019-04-28T01:15:15.355Z,1.17
2019-04-28T01:18:10.483Z,1.50
2019-04-28T01:20:39.937Z,1.67
2019-04-28T01:23:10.374Z,1.23
2019-04-28T01:25:40.116Z,1.40
2019-04-28T01:28:09.915Z,1.93
2019-04-28T01:31:16.582Z,1.37
2019-04-28T01:34:04.880Z,1.77
2019-04-28T01:36:36.552Z,1.50
2019-04-28T01:39:07.440Z,1.47
2019-04-28T01:41:36.858Z,1.67
2019-04-28T01:44:06.248Z,1.53
2019-04-28T01:46:35.629Z,1.40
2019-04-28T01:49:04.624Z,1.83
2019-04-28T01:51:33.663Z,1.47
2019-04-28T01:54:02.798Z,1.70
2019-04-28T01:56:31.814Z,1.90
2019-04-28T01:59:01.231Z,1.80
2019-04-28T02:01:30.350Z,2.00
2019-04-28T02:04:00.213Z,1.80
2019-04-28T02:06:30.043Z,2.00
2019-04-28T02:09:00.883Z,1.87
2019-04-28T02:11:30.400Z,2.47
2019-04-28T02:13:59.778Z,2.00
2019-04-28T02:16:29.594Z,1.70
2019-04-28T02:18:59.764Z,2.80
2019-04-28T02:21:49.552Z,1.97
2019-04-28T02:24:35.182Z,2.33
2019-04-28T02:27:04.588Z,2.23
2019-04-28T02:29:34.237Z,2.20
2019-04-28T02:32:04.083Z,2.40
2019-04-28T02:34:33.090Z,1.90
2019-04-28T02:37:02.422Z,2.07
2019-04-28T02:39:31.673Z,1.90
2019-04-28T02:42:01.814Z,2.60
2019-04-28T02:44:34.694Z,1.87
2019-04-28T02:47:01.830Z,1.93
2019-04-28T02:49:54.868Z,2.40
2019-04-28T02:52:41.742Z,2.20
2019-04-28T02:55:11.434Z,1.87
2019-04-28T02:57:40.967Z,2.30
2019-04-28T03:00:10.491Z,2.43
2019-04-28T03:02:41.325Z,2.60
2019-04-28T03:05:11.582Z,1.87
2019-04-28T03:07:41.143Z,1.70
2019-04-28T03:10:11.279Z,1.90
2019-04-28T03:12:41.383Z,1.80
2019-04-28T03:15:10.751Z,2.40
2019-04-28T03:17:40.649Z,1.90
2019-04-28T03:20:11.116Z,2.10
2019-04-28T03:22:41.056Z,2.20
2019-04-28T03:25:15.068Z,2.40
2019-04-28T03:28:12.197Z,2.23
2019-04-28T03:30:54.036Z,2.17
2019-04-28T03:33:25.722Z,2.20
2019-04-28T03:35:54.318Z,2.10
2019-04-28T03:38:23.513Z,2.03
2019-04-28T03:40:52.521Z,1.80
2019-04-28T03:43:21.864Z,2.43
2019-04-28T03:45:55.694Z,2.13
2019-04-28T03:48:24.689Z,2.07
2019-04-28T03:50:53.731Z,1.80
2019-04-28T03:53:22.769Z,1.97
2019-04-28T03:55:52.137Z,2.13
2019-04-28T03:58:24.043Z,1.90
2019-04-28T04:00:52.242Z,1.80
2019-04-28T04:03:21.575Z,2.00
2019-04-28T04:05:51.082Z,2.00
2019-04-28T04:08:21.055Z,1.93
2019-04-28T04:11:00.392Z,2.00
2019-04-28T04:13:38.380Z,2.00
2019-04-28T04:16:30.789Z,2.20
2019-04-28T04:19:00.867Z,1.90
2019-04-28T04:21:31.060Z,1.90
2019-04-28T04:24:01.208Z,1.50
2019-04-28T04:26:33.381Z,2.30
2019-04-28T04:29:01.774Z,1.83
2019-04-28T04:31:31.714Z,1.93
2019-04-28T04:34:03.460Z,1.70
2019-04-28T04:36:31.908Z,1.70
2019-04-28T04:39:02.038Z,1.70
2019-04-28T04:41:31.270Z,1.90
2019-04-28T04:44:01.302Z,2.30
2019-04-28T04:46:31.370Z,1.87
2019-04-28T04:49:01.132Z,1.80
2019-04-28T04:51:31.186Z,1.60
2019-04-28T04:54:01.196Z,1.40
2019-04-28T04:56:30.916Z,2.13
2019-04-28T04:59:02.687Z,1.60
2019-04-28T05:01:40.981Z,1.40
2019-04-28T05:04:29.725Z,1.97
2019-04-28T05:06:59.711Z,1.97
2019-04-28T05:09:31.046Z,2.27
2019-04-28T05:11:59.898Z,2.13
2019-04-28T05:14:29.895Z,2.20
2019-04-28T05:17:00.805Z,2.10
2019-04-28T05:19:30.338Z,2.30
2019-04-28T05:22:00.037Z,2.27
2019-04-28T05:24:54.543Z,2.00
2019-04-28T05:27:25.597Z,2.03
2019-04-28T05:29:56.727Z,2.03
2019-04-28T05:32:25.174Z,1.97
2019-04-28T05:34:54.212Z,1.73
2019-04-28T05:37:23.237Z,2.50
2019-04-28T05:39:52.690Z,2.40
2019-04-28T05:42:22.153Z,2.17
2019-04-28T05:44:51.183Z,2.13
2019-04-28T05:47:20.439Z,2.53
2019-04-28T05:50:05.150Z,2.03
2019-04-28T05:52:53.157Z,2.10
2019-04-28T05:55:27.250Z,2.13
2019-04-28T05:58:19.889Z,2.47
2019-04-28T06:01:17.086Z,2.43
2019-04-28T06:03:47.116Z,2.50
2019-04-28T06:06:16.134Z,2.57
2019-04-28T06:08:56.978Z,2.20
2019-04-28T06:11:30.642Z,2.47
2019-04-28T06:14:00.485Z,2.27
2019-04-28T06:16:30.430Z,2.60
2019-04-28T06:19:00.182Z,2.67
2019-04-28T06:21:29.602Z,2.30
2019-04-28T06:23:58.940Z,2.60
2019-04-28T06:26:28.296Z,2.70
2019-04-28T06:28:57.432Z,3.00
2019-04-28T06:31:26.447Z,2.60
2019-04-28T06:33:55.459Z,2.60
2019-04-28T06:36:24.789Z,2.50
2019-04-28T06:38:53.840Z,2.73
2019-04-28T06:41:22.828Z,2.80
2019-04-28T06:43:51.867Z,3.60
2019-04-28T06:46:20.880Z,2.80
2019-04-28T06:48:49.882Z,3.50
2019-04-28T06:51:18.912Z,5.57
2019-04-28T06:53:47.908Z,4.47
2019-04-28T06:56:17.462Z,2.73
2019-04-28T06:58:58.435Z,2.93
2019-04-28T07:01:18.173Z,3.30
2019-04-28T07:03:47.232Z,2.70
2019-04-28T07:06:16.221Z,3.87
2019-04-28T07:08:45.274Z,4.00
2019-04-28T07:11:14.285Z,3.07
2019-04-28T07:13:43.316Z,2.90
2019-04-28T07:16:12.712Z,2.63
2019-04-28T07:18:41.751Z,3.13
2019-04-28T07:21:29.774Z,2.73
2019-04-28T07:23:59.122Z,3.03
2019-04-28T07:26:28.451Z,3.53
2019-04-28T07:28:57.539Z,3.30
2019-04-28T07:31:26.663Z,5.83
2019-04-28T07:33:55.815Z,4.00
2019-04-28T07:36:25.267Z,3.20
2019-04-28T07:38:54.334Z,3.10
2019-04-28T07:41:23.785Z,3.30
2019-04-28T07:43:52.854Z,3.90
2019-04-28T07:46:21.923Z,3.03
2019-04-28T07:48:52.531Z,2.77
2019-04-28T07:51:23.686Z,2.70
2019-04-28T07:53:56.720Z,2.77
2019-04-28T07:56:26.394Z,3.40
2019-04-28T07:58:55.456Z,2.67
2019-04-28T08:01:24.511Z,3.33
2019-04-28T08:03:53.542Z,3.23
2019-04-28T08:06:22.589Z,3.03
2019-04-28T08:08:51.682Z,3.20
2019-04-28T08:11:20.730Z,3.23
2019-04-28T08:13:50.533Z,9.40
2019-04-28T08:16:19.589Z,6.70
2019-04-28T08:18:48.623Z,4.70
2019-04-28T08:21:17.670Z,3.63
2019-04-28T08:23:47.715Z,3.53
2019-04-28T08:26:16.821Z,3.33
2019-04-28T08:28:45.888Z,2.73
2019-04-28T08:31:17.257Z,2.80
2019-04-28T08:34:02.098Z,3.20
2019-04-28T08:36:24.101Z,2.93
2019-04-28T08:38:53.117Z,3.13
2019-04-28T08:41:22.152Z,3.03
2019-04-28T08:43:51.161Z,2.77
2019-04-28T08:46:20.242Z,2.67
2019-04-28T08:48:49.336Z,2.27
2019-04-28T08:51:18.898Z,2.80
2019-04-28T08:53:47.911Z,3.30
2019-04-28T08:56:16.925Z,3.10
2019-04-28T08:58:46.353Z,4.30
2019-04-28T09:01:15.713Z,2.90
2019-04-28T09:03:44.751Z,3.03
2019-04-28T09:06:13.799Z,3.90
2019-04-28T09:08:43.182Z,3.17
2019-04-28T09:11:12.626Z,4.30
2019-04-28T09:13:43.852Z,3.20
2019-04-28T09:16:12.771Z,3.97
2019-04-28T09:18:41.849Z,3.20
2019-04-28T09:21:11.261Z,3.70
2019-04-28T09:23:40.328Z,3.43
2019-04-28T09:26:09.357Z,3.43
2019-04-28T09:28:38.390Z,3.80
2019-04-28T09:31:07.750Z,3.70
2019-04-28T09:33:36.839Z,3.23
2019-04-28T09:36:06.224Z,3.23
2019-04-28T09:38:35.268Z,3.73
2019-04-28T09:41:04.323Z,3.77
2019-04-28T09:43:51.071Z,3.77
2019-04-28T09:46:23.161Z,3.80
2019-04-28T09:48:52.584Z,3.90
2019-04-28T09:51:21.736Z,4.03
2019-04-28T09:53:51.074Z,4.13
2019-04-28T09:56:20.423Z,4.10
2019-04-28T09:58:49.517Z,4.10
2019-04-28T10:01:18.588Z,4.70
2019-04-28T10:03:47.638Z,4.37
2019-04-28T10:06:16.689Z,4.17
2019-04-28T10:08:45.699Z,4.17
2019-04-28T10:11:14.999Z,4.13
2019-04-28T10:13:44.110Z,3.93
2019-04-28T10:16:13.205Z,3.57
2019-04-28T10:18:42.277Z,3.77
2019-04-28T10:21:11.753Z,3.60
2019-04-28T10:23:40.787Z,3.83
2019-04-28T10:26:09.898Z,3.40
2019-04-28T10:28:39.267Z,3.00
2019-04-28T10:31:08.491Z,3.13
2019-04-28T10:33:39.553Z,2.63
2019-04-28T10:36:09.288Z,2.53
2019-04-28T10:38:40.874Z,2.30
2019-04-28T10:41:15.755Z,2.90
2019-04-28T10:43:44.792Z,2.27
2019-04-28T10:46:14.193Z,2.13
2019-04-28T10:48:43.637Z,2.30
2019-04-28T10:51:12.633Z,2.80
2019-04-28T10:53:41.990Z,3.30
2019-04-28T10:56:11.065Z,3.73
2019-04-28T10:58:42.273Z,3.30
2019-04-28T11:01:11.355Z,3.60
2019-04-28T11:03:41.488Z,3.87
2019-04-28T11:06:12.644Z,4.40
2019-04-28T11:09:00.563Z,6.20
2019-04-28T11:11:29.948Z,4.00
2019-04-28T11:13:59.059Z,6.07
2019-04-28T11:16:31.803Z,4.97
2019-04-28T11:19:01.169Z,3.80
2019-04-28T11:21:30.185Z,3.17
2019-04-28T11:23:59.308Z,3.40
2019-04-28T11:26:28.347Z,3.63
2019-04-28T11:28:57.715Z,3.90
2019-04-28T11:31:27.301Z,3.83
2019-04-28T11:34:06.939Z,5.27
2019-04-28T11:36:36.842Z,4.20
2019-04-28T11:39:09.382Z,5.30
2019-04-28T11:41:38.550Z,4.53
2019-04-28T11:44:07.557Z,4.90
2019-04-28T11:46:36.741Z,3.90
2019-04-28T11:49:05.907Z,7.10
2019-04-28T11:51:35.023Z,6.53
2019-04-28T11:54:05.613Z,3.97
2019-04-28T11:59:06.225Z,2.60
2019-04-28T12:01:35.585Z,2.80
2019-04-28T12:04:06.322Z,3.90
2019-04-28T12:06:35.771Z,4.33
2019-04-28T12:09:24.330Z,4.20
2019-04-28T12:11:53.977Z,4.00
2019-04-28T12:14:27.079Z,5.07
2019-04-28T12:17:24.816Z,4.40
2019-04-28T12:19:57.612Z,4.13
2019-04-28T12:22:26.985Z,4.30
2019-04-28T12:24:56.205Z,3.80
2019-04-28T12:27:25.247Z,3.87
2019-04-28T12:29:54.996Z,3.60
2019-04-28T12:32:24.091Z,3.93
2019-04-28T12:34:53.498Z,3.87
2019-04-28T12:37:22.885Z,4.03
2019-04-28T12:39:51.945Z,4.07
2019-04-28T12:42:21.389Z,4.00
2019-04-28T12:44:50.470Z,3.70
2019-04-28T12:47:24.880Z,4.30
2019-04-28T12:50:00.090Z,3.90
2019-04-28T12:52:29.248Z,4.00
2019-04-28T12:54:58.921Z,4.00
2019-04-28T12:57:28.388Z,3.80
2019-04-28T13:00:10.479Z,3.90
2019-04-28T13:03:01.710Z,4.30
2019-04-28T13:05:32.945Z,3.70
2019-04-28T13:08:02.001Z,3.77
2019-04-28T13:10:31.480Z,3.77
2019-04-28T13:13:01.017Z,3.70
2019-04-28T13:15:30.105Z,3.57
2019-04-28T13:17:59.245Z,4.23
2019-04-28T13:20:28.241Z,4.10
2019-04-28T13:23:15.710Z,3.93
2019-04-28T13:25:48.058Z,4.00
2019-04-28T13:28:17.139Z,4.17
2019-04-28T13:30:46.872Z,4.43
2019-04-28T13:33:15.991Z,4.80
2019-04-28T13:35:45.042Z,4.70
2019-04-28T13:38:14.117Z,5.37
2019-04-28T13:40:43.631Z,5.00
2019-04-28T13:43:12.781Z,4.50
2019-04-28T13:45:42.199Z,4.13
2019-04-28T13:48:11.690Z,4.73
2019-04-28T13:50:40.768Z,5.13
2019-04-28T13:53:10.534Z,5.17
2019-04-28T13:56:02.072Z,4.37
2019-04-28T13:58:37.714Z,4.80
2019-04-28T14:01:14.329Z,4.40
2019-04-28T14:04:05.143Z,5.00
2019-04-28T14:06:37.962Z,3.93
2019-04-28T14:09:12.648Z,4.17
2019-04-28T14:11:42.084Z,4.50
2019-04-28T14:14:12.539Z,5.27
2019-04-28T14:16:41.666Z,5.30
2019-04-28T14:19:10.715Z,5.43
2019-04-28T14:21:40.506Z,5.97
2019-04-28T14:24:09.509Z,5.07
2019-04-28T14:26:40.211Z,4.63
2019-04-28T14:29:09.831Z,4.60
2019-04-28T14:31:39.177Z,5.80
2019-04-28T14:34:09.060Z,5.07
2019-04-28T14:36:42.365Z,5.60
2019-04-28T14:39:09.364Z,5.80
2019-04-28T14:41:38.531Z,4.87
2019-04-28T14:44:07.679Z,4.23
2019-04-28T14:46:37.833Z,4.33
2019-04-28T14:49:11.177Z,4.20
2019-04-28T14:51:41.041Z,4.30
2019-04-28T14:54:11.963Z,4.83
2019-04-28T14:56:41.329Z,4.63
2019-04-28T14:59:10.420Z,5.00
2019-04-28T15:02:04.560Z,3.90
2019-04-28T15:04:51.124Z,3.77
2019-04-28T15:07:39.142Z,4.00
2019-04-28T15:10:33.483Z,4.27
2019-04-28T15:13:03.480Z,4.23
2019-04-28T15:15:33.004Z,4.93
2019-04-28T15:18:02.604Z,6.23
2019-04-28T15:20:31.994Z,5.57
2019-04-28T15:23:01.059Z,5.37
2019-04-28T15:25:30.093Z,6.20
2019-04-28T15:27:59.097Z,5.83
2019-04-28T15:30:28.221Z,6.40
2019-04-28T15:32:57.567Z,5.97
2019-04-28T15:35:27.017Z,6.43
2019-04-28T15:37:56.022Z,7.07
2019-04-28T15:40:25.034Z,6.90
2019-04-28T15:42:54.134Z,6.87
2019-04-28T15:45:23.174Z,6.43
2019-04-28T15:47:52.345Z,6.40
2019-04-28T15:50:29.259Z,6.37
2019-04-28T15:52:58.434Z,6.73
2019-04-28T15:55:34.683Z,7.10
2019-04-28T15:58:23.249Z,7.07
2019-04-28T16:00:52.305Z,7.07
2019-04-28T16:03:21.558Z,6.40
2019-04-28T16:05:50.971Z,5.77
2019-04-28T16:08:19.994Z,5.97
2019-04-28T16:10:49.052Z,6.77
2019-04-28T16:13:18.097Z,6.30
2019-04-28T16:15:47.179Z,5.60
2019-04-28T16:18:16.548Z,6.47
2019-04-28T16:20:45.716Z,6.57
2019-04-28T16:23:14.798Z,6.50
2019-04-28T16:25:44.195Z,6.40
2019-04-28T16:28:13.377Z,6.40
2019-04-28T16:30:42.434Z,6.93
2019-04-28T16:33:11.895Z,6.97
2019-04-28T16:35:41.218Z,6.97
2019-04-28T16:38:10.264Z,7.27
2019-04-28T16:40:49.951Z,7.57
2019-04-28T16:43:23.590Z,7.80
2019-04-28T16:45:52.622Z,8.30
2019-04-28T16:48:21.750Z,7.63
2019-04-28T16:50:50.787Z,7.73
2019-04-28T16:53:19.816Z,7.70
2019-04-28T16:56:20.029Z,8.27
2019-04-28T16:59:07.037Z,7.20
2019-04-28T17:02:01.063Z,7.10
2019-04-28T17:04:30.401Z,6.83
2019-04-28T17:07:00.069Z,7.30
2019-04-28T17:09:29.499Z,7.10
2019-04-28T17:11:58.646Z,7.30
2019-04-28T17:14:27.975Z,7.97
2019-04-28T17:16:57.378Z,8.23
2019-04-28T17:19:26.640Z,7.13
2019-04-28T17:21:55.962Z,7.57
2019-04-28T17:24:25.051Z,7.87
2019-04-28T17:26:54.412Z,8.73
2019-04-28T17:29:23.833Z,7.77
2019-04-28T17:31:52.836Z,8.30
2019-04-28T17:34:22.512Z,7.83
2019-04-28T17:36:51.552Z,7.10
2019-04-28T17:39:22.540Z,7.90
2019-04-28T17:41:52.090Z,8.70
2019-04-28T17:44:21.440Z,8.20
2019-04-28T17:46:50.846Z,8.27
2019-04-28T17:49:25.586Z,8.90
2019-04-28T17:51:54.862Z,8.97
2019-04-28T17:54:23.860Z,9.13
2019-04-28T17:56:52.884Z,8.73
2019-04-28T17:59:22.270Z,10.20
2019-04-28T18:02:16.337Z,8.90
2019-04-28T18:05:08.462Z,9.93
2019-04-28T18:07:38.288Z,9.80
2019-04-28T18:10:08.775Z,10.27
2019-04-28T18:12:37.817Z,9.00
2019-04-28T18:15:31.418Z,10.07
2019-04-28T18:18:11.768Z,8.80
2019-04-28T18:20:40.819Z,7.67
2019-04-28T18:23:09.870Z,8.60
2019-04-28T18:25:39.030Z,8.30
2019-04-28T18:28:08.449Z,6.80
2019-04-28T18:30:41.118Z,7.83
2019-04-28T18:33:29.093Z,7.73
2019-04-28T18:36:07.224Z,8.17
2019-04-28T18:38:58.556Z,7.93
2019-04-28T18:41:43.549Z,7.33
2019-04-28T18:44:18.742Z,8.43
2019-04-28T18:46:47.785Z,8.30
2019-04-28T18:49:17.224Z,8.43
2019-04-28T18:51:46.366Z,8.13
2019-04-28T18:54:15.686Z,8.37
2019-04-28T18:56:45.171Z,8.43
2019-04-28T18:59:14.545Z,8.80
2019-04-28T19:02:11.513Z,8.87
2019-04-28T19:04:40.645Z,9.23
2019-04-28T19:07:11.593Z,9.73
2019-04-28T19:10:01.717Z,9.60
2019-04-28T19:12:36.299Z,10.67
2019-04-28T19:15:27.871Z,10.40
2019-04-28T19:18:04.077Z,10.70
2019-04-28T19:20:33.498Z,10.83
2019-04-28T19:23:03.206Z,10.07
2019-04-28T19:25:35.232Z,9.40
2019-04-28T19:28:03.355Z,9.77
2019-04-28T19:30:32.390Z,9.73
2019-04-28T19:33:01.453Z,10.20
2019-04-28T19:35:30.606Z,9.37
2019-04-28T19:37:59.674Z,10.10
2019-04-28T19:40:28.737Z,9.63
2019-04-28T19:42:57.772Z,11.17
2019-04-28T19:45:26.798Z,10.53
2019-04-28T19:47:56.367Z,9.97
2019-04-28T19:50:25.461Z,11.53
2019-04-28T19:52:56.566Z,11.47
2019-04-28T19:55:30.423Z,12.20
2019-04-28T19:58:13.493Z,12.87
2019-04-28T20:00:47.261Z,11.47
2019-04-28T20:03:16.593Z,11.30
2019-04-28T20:05:45.672Z,11.80
2019-04-28T20:08:14.775Z,12.43
2019-04-28T20:10:43.867Z,11.83
2019-04-28T20:13:13.017Z,10.77
2019-04-28T20:15:42.436Z,11.67
2019-04-28T20:18:11.801Z,11.57
2019-04-28T20:20:40.907Z,12.00
2019-04-28T20:23:10.878Z,12.53
2019-04-28T20:25:40.236Z,12.57
2019-04-28T20:28:09.543Z,11.77
2019-04-28T20:30:38.583Z,12.80
2019-04-28T20:33:08.024Z,12.83
2019-04-28T20:35:40.450Z,13.37
2019-04-28T20:38:15.796Z,12.87
2019-04-28T20:41:00.475Z,13.20
2019-04-28T20:43:29.578Z,12.10
2019-04-28T20:45:58.622Z,12.17
2019-04-28T20:48:27.638Z,12.77
2019-04-28T20:50:56.685Z,12.33
2019-04-28T20:53:25.981Z,12.47
2019-04-28T20:55:55.049Z,13.83
2019-04-28T20:58:24.093Z,12.87
2019-04-28T21:00:53.702Z,12.77
2019-04-28T21:03:22.709Z,12.93
2019-04-28T21:05:51.769Z,12.03
2019-04-28T21:08:21.407Z,11.33
2019-04-28T21:10:51.021Z,12.83
2019-04-28T21:13:20.053Z,13.73
2019-04-28T21:15:49.395Z,14.07
2019-04-28T21:18:18.427Z,14.43
2019-04-28T21:20:47.468Z,10.27
2019-04-28T21:23:16.523Z,10.97
2019-04-28T21:25:45.614Z,10.97
2019-04-28T21:28:14.689Z,11.17
2019-04-28T21:30:43.695Z,9.97
2019-04-28T21:33:13.015Z,9.77
2019-04-28T21:35:42.305Z,12.17
2019-04-28T21:38:11.640Z,12.57
2019-04-28T21:40:42.028Z,12.87
2019-04-28T21:43:22.826Z,12.97
2019-04-28T21:46:13.617Z,11.80
2019-04-28T21:48:45.059Z,10.73
2019-04-28T21:51:14.098Z,11.53
2019-04-28T21:53:43.119Z,11.33
2019-04-28T21:56:12.462Z,11.40
2019-04-28T21:58:41.529Z,12.53
2019-04-28T22:01:14.119Z,12.50
2019-04-28T22:03:43.183Z,13.53
2019-04-28T22:06:12.215Z,14.40
2019-04-28T22:08:41.263Z,13.43
2019-04-28T22:11:10.271Z,13.67
2019-04-28T22:13:39.597Z,13.57
2019-04-28T22:16:08.753Z,13.90
2019-04-28T22:18:37.790Z,12.53
2019-04-28T22:21:06.847Z,13.77
2019-04-28T22:24:00.597Z,13.93
2019-04-28T22:26:49.495Z,14.50
2019-04-28T22:29:18.578Z,13.73
2019-04-28T22:31:47.933Z,13.53
2019-04-28T22:34:16.957Z,14.53
2019-04-28T22:36:46.864Z,11.90
2019-04-28T22:39:16.626Z,10.27
2019-04-28T22:41:45.650Z,10.03
2019-04-28T22:44:14.665Z,9.97
2019-04-28T22:46:43.979Z,10.63
2019-04-28T22:49:14.841Z,10.20
2019-04-28T22:51:43.853Z,10.13
2019-04-28T22:54:28.429Z,11.30
2019-04-28T22:57:25.185Z,11.97
2019-04-28T22:59:54.303Z,10.33
2019-04-28T23:02:23.389Z,9.57
2019-04-28T23:04:56.270Z,10.13
2019-04-28T23:07:25.309Z,10.23
2019-04-28T23:09:54.308Z,9.73
2019-04-28T23:12:23.360Z,9.97
2019-04-28T23:14:52.675Z,9.97
2019-04-28T23:17:22.397Z,9.77
2019-04-28T23:19:51.419Z,9.87
2019-04-28T23:22:46.238Z,10.23
2019-04-28T23:25:07.603Z,6.90
2019-04-28T23:27:36.662Z,7.50
2019-04-28T23:30:06.671Z,8.30
2019-04-28T23:32:35.698Z,8.90
2019-04-28T23:35:05.112Z,9.90
2019-04-28T23:37:34.131Z,9.27
2019-04-28T23:40:03.138Z,10.13
2019-04-28T23:42:55.707Z,9.10
2019-04-28T23:45:24.763Z,9.33
2019-04-28T23:47:53.749Z,9.50
2019-04-28T23:50:29.711Z,7.00
2019-04-28T23:53:08.912Z,8.63
2019-04-28T23:55:38.228Z,8.57
2019-04-28T23:58:07.221Z,8.77
